N225MV KORL-KSRQ
Flight info
| Callsign | N225MV |
|---|---|
| Flight time | 0h 42m |
| Altitude | 16000 |
| Route | NYTES2 NYTES FSHUN PLUMR CURSD |
| Aircraft | SF50/L-BDGRSWY/LB2U2 |
Departure
| Time | 2026-05-04 23:39 |
|---|---|
| Airport | Orlando Executive Airport (KORL) |
Arrival
| Time | 2026-05-05 00:22 |
|---|---|
| Airport | Sarasota Bradenton International Airport (KSRQ) |
| Time | Latitude | Longitude | Altitude | Speed | Heading |
|---|---|---|---|---|---|
| 2026-05-04 23:25 | 28.54899 | -81.33543 | 114 ft | 0 kts | 221° |
| 2026-05-04 23:33 | 28.54895 | -81.33547 | 113 ft | 3 kts | 221° |
| 2026-05-04 23:34 | 28.54867 | -81.33578 | 112 ft | 8 kts | 238° |
| 2026-05-04 23:34 | 28.54820 | -81.33633 | 113 ft | 12 kts | 222° |
| 2026-05-04 23:34 | 28.54756 | -81.33697 | 113 ft | 12 kts | 221° |
| 2026-05-04 23:34 | 28.54696 | -81.33741 | 112 ft | 9 kts | 156° |
| 2026-05-04 23:35 | 28.54649 | -81.33683 | 112 ft | 13 kts | 130° |
| 2026-05-04 23:35 | 28.54586 | -81.33601 | 111 ft | 11 kts | 131° |
| 2026-05-04 23:35 | 28.54540 | -81.33648 | 109 ft | 13 kts | 246° |
| 2026-05-04 23:35 | 28.54502 | -81.33748 | 108 ft | 14 kts | 246° |
| 2026-05-04 23:36 | 28.54455 | -81.33841 | 109 ft | 13 kts | 219° |
| 2026-05-04 23:36 | 28.54407 | -81.33907 | 108 ft | 10 kts | 237° |
| 2026-05-04 23:36 | 28.54360 | -81.33957 | 106 ft | 7 kts | 174° |
| 2026-05-04 23:36 | 28.54353 | -81.33954 | 106 ft | 0 kts | 146° |
| 2026-05-04 23:37 | 28.54352 | -81.33954 | 106 ft | 0 kts | 153° |
| 2026-05-04 23:38 | 28.54334 | -81.33944 | 106 ft | 10 kts | 157° |
| 2026-05-04 23:38 | 28.54296 | -81.33894 | 105 ft | 10 kts | 65° |
| 2026-05-04 23:38 | 28.54380 | -81.33672 | 107 ft | 63 kts | 66° |
| 2026-05-04 23:39 | 28.54624 | -81.33018 | 258 ft | 103 kts | 66° |
| 2026-05-04 23:39 | 28.54983 | -81.32301 | 675 ft | 113 kts | 62° |
| 2026-05-04 23:39 | 28.55426 | -81.31418 | 705 ft | 147 kts | 63° |
| 2026-05-04 23:39 | 28.55933 | -81.30385 | 1002 ft | 150 kts | 63° |
| 2026-05-04 23:40 | 28.56448 | -81.29346 | 1262 ft | 152 kts | 63° |
| 2026-05-04 23:40 | 28.56971 | -81.28298 | 1521 ft | 153 kts | 63° |
| 2026-05-04 23:40 | 28.57497 | -81.27241 | 1783 ft | 153 kts | 64° |
| 2026-05-04 23:40 | 28.57784 | -81.26043 | 1877 ft | 167 kts | 83° |
| 2026-05-04 23:41 | 28.57933 | -81.24763 | 2560 ft | 160 kts | 83° |
| 2026-05-04 23:41 | 28.58086 | -81.23497 | 2994 ft | 171 kts | 83° |
| 2026-05-04 23:41 | 28.58254 | -81.22050 | 3012 ft | 197 kts | 83° |
| 2026-05-04 23:41 | 28.58569 | -81.20453 | 3008 ft | 219 kts | 65° |
| 2026-05-04 23:42 | 28.59738 | -81.19362 | 3419 ft | 221 kts | 18° |
| 2026-05-04 23:42 | 28.61158 | -81.19613 | 4322 ft | 205 kts | 329° |
| 2026-05-04 23:42 | 28.61830 | -81.20908 | 5239 ft | 188 kts | 275° |
| 2026-05-04 23:42 | 28.61715 | -81.22377 | 5784 ft | 188 kts | 262° |
| 2026-05-04 23:43 | 28.61545 | -81.23909 | 6027 ft | 206 kts | 263° |
| 2026-05-04 23:43 | 28.61368 | -81.25553 | 6416 ft | 210 kts | 263° |
| 2026-05-04 23:43 | 28.61192 | -81.27205 | 6885 ft | 211 kts | 263° |
| 2026-05-04 23:43 | 28.61015 | -81.28863 | 7323 ft | 212 kts | 263° |
| 2026-05-04 23:44 | 28.60838 | -81.30527 | 7756 ft | 212 kts | 263° |
| 2026-05-04 23:44 | 28.60663 | -81.32197 | 8186 ft | 213 kts | 263° |
| 2026-05-04 23:44 | 28.60473 | -81.33875 | 8595 ft | 214 kts | 259° |
| 2026-05-04 23:44 | 28.60097 | -81.35514 | 8994 ft | 215 kts | 253° |
| 2026-05-04 23:45 | 28.59667 | -81.37149 | 9403 ft | 216 kts | 253° |
| 2026-05-04 23:45 | 28.59238 | -81.38783 | 9809 ft | 216 kts | 253° |
| 2026-05-04 23:45 | 28.58814 | -81.40420 | 10238 ft | 215 kts | 253° |
| 2026-05-04 23:45 | 28.58390 | -81.42052 | 10668 ft | 214 kts | 253° |
| 2026-05-04 23:46 | 28.57961 | -81.43675 | 11094 ft | 214 kts | 253° |
| 2026-05-04 23:46 | 28.57518 | -81.45283 | 11498 ft | 212 kts | 250° |
| 2026-05-04 23:46 | 28.56562 | -81.46533 | 11862 ft | 218 kts | 209° |
| 2026-05-04 23:46 | 28.55057 | -81.46742 | 12227 ft | 224 kts | 177° |
| 2026-05-04 23:47 | 28.53501 | -81.46574 | 12555 ft | 225 kts | 182° |
| 2026-05-04 23:47 | 28.51940 | -81.46634 | 12915 ft | 224 kts | 188° |
| 2026-05-04 23:47 | 28.50382 | -81.46777 | 13263 ft | 226 kts | 188° |
| 2026-05-04 23:47 | 28.48809 | -81.46883 | 13597 ft | 227 kts | 187° |
| 2026-05-04 23:48 | 28.47226 | -81.46975 | 13916 ft | 228 kts | 187° |
| 2026-05-04 23:48 | 28.45634 | -81.47076 | 14203 ft | 232 kts | 187° |
| 2026-05-04 23:48 | 28.44546 | -81.47147 | 14201 ft | 241 kts | 188° |
| 2026-05-04 23:48 | 28.42832 | -81.47254 | 14211 ft | 251 kts | 187° |
| 2026-05-04 23:49 | 28.41063 | -81.47362 | 14219 ft | 258 kts | 187° |
| 2026-05-04 23:49 | 28.39254 | -81.47475 | 14224 ft | 262 kts | 187° |
| 2026-05-04 23:49 | 28.37419 | -81.47591 | 14226 ft | 265 kts | 187° |
| 2026-05-04 23:49 | 28.35570 | -81.47705 | 14228 ft | 268 kts | 187° |
| 2026-05-04 23:50 | 28.33703 | -81.47821 | 14229 ft | 269 kts | 187° |
| 2026-05-04 23:50 | 28.31827 | -81.47940 | 14231 ft | 271 kts | 187° |
| 2026-05-04 23:50 | 28.29938 | -81.48058 | 14232 ft | 273 kts | 187° |
| 2026-05-04 23:50 | 28.28041 | -81.48177 | 14233 ft | 274 kts | 187° |
| 2026-05-04 23:51 | 28.26130 | -81.48297 | 14234 ft | 275 kts | 187° |
| 2026-05-04 23:51 | 28.24218 | -81.48416 | 14235 ft | 276 kts | 187° |
| 2026-05-04 23:51 | 28.22316 | -81.48531 | 14464 ft | 266 kts | 187° |
| 2026-05-04 23:51 | 28.20560 | -81.48633 | 15196 ft | 240 kts | 187° |
| 2026-05-04 23:52 | 28.18936 | -81.48735 | 15678 ft | 233 kts | 189° |
| 2026-05-04 23:52 | 28.17304 | -81.48848 | 15920 ft | 235 kts | 189° |
| 2026-05-04 23:52 | 28.15643 | -81.48953 | 15997 ft | 244 kts | 188° |
| 2026-05-04 23:52 | 28.13919 | -81.49062 | 16004 ft | 252 kts | 188° |
| 2026-05-04 23:53 | 28.12144 | -81.49172 | 16001 ft | 258 kts | 188° |
| 2026-05-04 23:53 | 28.10332 | -81.49283 | 15999 ft | 262 kts | 188° |
| 2026-05-04 23:53 | 28.08503 | -81.49396 | 16001 ft | 265 kts | 188° |
| 2026-05-04 23:53 | 28.06654 | -81.49512 | 16001 ft | 267 kts | 188° |
| 2026-05-04 23:54 | 28.04792 | -81.49628 | 16000 ft | 269 kts | 188° |
| 2026-05-04 23:54 | 28.02957 | -81.49741 | 16000 ft | 271 kts | 188° |
| 2026-05-04 23:54 | 28.01075 | -81.49857 | 15999 ft | 272 kts | 188° |
| 2026-05-04 23:54 | 27.99182 | -81.49976 | 16000 ft | 273 kts | 188° |
| 2026-05-04 23:55 | 27.97282 | -81.50094 | 15988 ft | 274 kts | 188° |
| 2026-05-04 23:55 | 27.95370 | -81.50212 | 15989 ft | 275 kts | 188° |
| 2026-05-04 23:55 | 27.91663 | -81.50951 | 15982 ft | 268 kts | 206° |
| 2026-05-04 23:56 | 27.90041 | -81.51948 | 15979 ft | 264 kts | 218° |
| 2026-05-04 23:56 | 27.88589 | -81.53204 | 15980 ft | 263 kts | 221° |
| 2026-05-04 23:56 | 27.87131 | -81.54446 | 15981 ft | 263 kts | 220° |
| 2026-05-04 23:56 | 27.85664 | -81.55694 | 15982 ft | 264 kts | 221° |
| 2026-05-04 23:57 | 27.84200 | -81.56948 | 15981 ft | 264 kts | 221° |
| 2026-05-04 23:57 | 27.82738 | -81.58199 | 15982 ft | 264 kts | 221° |
| 2026-05-04 23:57 | 27.81270 | -81.59457 | 15988 ft | 264 kts | 221° |
| 2026-05-04 23:57 | 27.79806 | -81.60710 | 15994 ft | 264 kts | 221° |
| 2026-05-04 23:58 | 27.78342 | -81.61961 | 15994 ft | 264 kts | 221° |
| 2026-05-04 23:58 | 27.76874 | -81.63215 | 15994 ft | 265 kts | 221° |
| 2026-05-04 23:58 | 27.75407 | -81.64472 | 15994 ft | 265 kts | 221° |
| 2026-05-04 23:58 | 27.73938 | -81.65727 | 15994 ft | 265 kts | 221° |
| 2026-05-04 23:59 | 27.72469 | -81.66979 | 15995 ft | 265 kts | 220° |
| 2026-05-04 23:59 | 27.70998 | -81.68233 | 15994 ft | 265 kts | 221° |
| 2026-05-04 23:59 | 27.69585 | -81.69548 | 15990 ft | 262 kts | 228° |
| 2026-05-04 23:59 | 27.68447 | -81.71137 | 15990 ft | 260 kts | 236° |
| 2026-05-05 00:00 | 27.67364 | -81.72772 | 15991 ft | 261 kts | 235° |
| 2026-05-05 00:00 | 27.66635 | -81.73848 | 15991 ft | 261 kts | 235° |
| 2026-05-05 00:00 | 27.65170 | -81.76027 | 15991 ft | 261 kts | 236° |
| 2026-05-05 00:00 | 27.64079 | -81.77660 | 15991 ft | 261 kts | 236° |
| 2026-05-05 00:01 | 27.62984 | -81.79292 | 15991 ft | 261 kts | 236° |
| 2026-05-05 00:01 | 27.61891 | -81.80923 | 15991 ft | 261 kts | 236° |
| 2026-05-05 00:01 | 27.60812 | -81.82535 | 15991 ft | 261 kts | 236° |
| 2026-05-05 00:01 | 27.59703 | -81.84184 | 15991 ft | 261 kts | 235° |
| 2026-05-05 00:02 | 27.58620 | -81.85795 | 15896 ft | 264 kts | 236° |
| 2026-05-05 00:02 | 27.57487 | -81.87488 | 15472 ft | 279 kts | 235° |
| 2026-05-05 00:02 | 27.56269 | -81.89305 | 14742 ft | 291 kts | 235° |
| 2026-05-05 00:02 | 27.55047 | -81.91113 | 13983 ft | 289 kts | 234° |
| 2026-05-05 00:03 | 27.53853 | -81.92888 | 13204 ft | 287 kts | 234° |
| 2026-05-05 00:03 | 27.52650 | -81.94679 | 12405 ft | 285 kts | 234° |
| 2026-05-05 00:03 | 27.51460 | -81.96449 | 11608 ft | 281 kts | 234° |
| 2026-05-05 00:03 | 27.50286 | -81.98192 | 10810 ft | 278 kts | 234° |
| 2026-05-05 00:04 | 27.49120 | -81.99927 | 10012 ft | 278 kts | 233° |
| 2026-05-05 00:04 | 27.48004 | -82.01711 | 9209 ft | 279 kts | 240° |
| 2026-05-05 00:04 | 27.47290 | -82.03750 | 8382 ft | 281 kts | 255° |
| 2026-05-05 00:04 | 27.46950 | -82.05907 | 7508 ft | 279 kts | 261° |
| 2026-05-05 00:05 | 27.46645 | -82.08038 | 6978 ft | 268 kts | 260° |
| 2026-05-05 00:05 | 27.46334 | -82.10113 | 6972 ft | 270 kts | 260° |
| 2026-05-05 00:05 | 27.46023 | -82.12197 | 6972 ft | 269 kts | 260° |
| 2026-05-05 00:05 | 27.45714 | -82.14273 | 6971 ft | 269 kts | 260° |
| 2026-05-05 00:06 | 27.45361 | -82.16335 | 6964 ft | 268 kts | 252° |
| 2026-05-05 00:06 | 27.44806 | -82.18324 | 6963 ft | 267 kts | 255° |
| 2026-05-05 00:06 | 27.44384 | -82.20359 | 6964 ft | 268 kts | 257° |
| 2026-05-05 00:06 | 27.43988 | -82.22411 | 6965 ft | 268 kts | 257° |
| 2026-05-05 00:07 | 27.43595 | -82.24457 | 6966 ft | 269 kts | 257° |
| 2026-05-05 00:07 | 27.43195 | -82.26546 | 6966 ft | 269 kts | 257° |
| 2026-05-05 00:07 | 27.42806 | -82.28575 | 6965 ft | 268 kts | 257° |
| 2026-05-05 00:07 | 27.42412 | -82.30630 | 6829 ft | 273 kts | 257° |
| 2026-05-05 00:08 | 27.42015 | -82.32731 | 6454 ft | 275 kts | 257° |
| 2026-05-05 00:08 | 27.41623 | -82.34829 | 6086 ft | 273 kts | 258° |
| 2026-05-05 00:08 | 27.41232 | -82.36905 | 5711 ft | 271 kts | 258° |
| 2026-05-05 00:08 | 27.40844 | -82.38974 | 5335 ft | 270 kts | 257° |
| 2026-05-05 00:09 | 27.40466 | -82.41043 | 4957 ft | 269 kts | 258° |
| 2026-05-05 00:09 | 27.40094 | -82.43119 | 4583 ft | 272 kts | 258° |
| 2026-05-05 00:09 | 27.39723 | -82.45210 | 4209 ft | 274 kts | 258° |
| 2026-05-05 00:09 | 27.39351 | -82.47323 | 3834 ft | 274 kts | 258° |
| 2026-05-05 00:10 | 27.38988 | -82.49413 | 3460 ft | 269 kts | 258° |
| 2026-05-05 00:10 | 27.38646 | -82.51408 | 3084 ft | 250 kts | 258° |
| 2026-05-05 00:10 | 27.38337 | -82.53247 | 2960 ft | 231 kts | 258° |
| 2026-05-05 00:10 | 27.38042 | -82.55048 | 2958 ft | 238 kts | 258° |
| 2026-05-05 00:11 | 27.37736 | -82.56888 | 2963 ft | 238 kts | 258° |
| 2026-05-05 00:11 | 27.37608 | -82.58716 | 2951 ft | 237 kts | 280° |
| 2026-05-05 00:11 | 27.38369 | -82.60331 | 2961 ft | 237 kts | 311° |
| 2026-05-05 00:11 | 27.39459 | -82.61730 | 2970 ft | 238 kts | 314° |
| 2026-05-05 00:12 | 27.40557 | -82.63115 | 2972 ft | 236 kts | 314° |
| 2026-05-05 00:12 | 27.41650 | -82.64486 | 2971 ft | 235 kts | 314° |
| 2026-05-05 00:12 | 27.42742 | -82.65853 | 2880 ft | 239 kts | 314° |
| 2026-05-05 00:12 | 27.43856 | -82.67242 | 2633 ft | 236 kts | 314° |
| 2026-05-05 00:13 | 27.44946 | -82.68598 | 2382 ft | 231 kts | 314° |
| 2026-05-05 00:13 | 27.46033 | -82.69938 | 2062 ft | 232 kts | 314° |
| 2026-05-05 00:13 | 27.47105 | -82.71249 | 1964 ft | 223 kts | 314° |
| 2026-05-05 00:13 | 27.48175 | -82.72556 | 1961 ft | 230 kts | 314° |
| 2026-05-05 00:14 | 27.49264 | -82.73883 | 1965 ft | 230 kts | 314° |
| 2026-05-05 00:14 | 27.50346 | -82.75206 | 1965 ft | 229 kts | 314° |
| 2026-05-05 00:14 | 27.51422 | -82.76527 | 1965 ft | 229 kts | 314° |
| 2026-05-05 00:14 | 27.52514 | -82.77867 | 1965 ft | 229 kts | 314° |
| 2026-05-05 00:15 | 27.53590 | -82.79136 | 1958 ft | 226 kts | 322° |
| 2026-05-05 00:15 | 27.55032 | -82.79705 | 1952 ft | 222 kts | 4° |
| 2026-05-05 00:15 | 27.56393 | -82.79061 | 1954 ft | 213 kts | 46° |
| 2026-05-05 00:15 | 27.56957 | -82.77582 | 1955 ft | 208 kts | 89° |
| 2026-05-05 00:16 | 27.56561 | -82.76007 | 1961 ft | 208 kts | 113° |
| 2026-05-05 00:16 | 27.55956 | -82.74545 | 1965 ft | 209 kts | 114° |
| 2026-05-05 00:16 | 27.55143 | -82.73195 | 1959 ft | 211 kts | 132° |
| 2026-05-05 00:16 | 27.54053 | -82.72086 | 1961 ft | 212 kts | 136° |
| 2026-05-05 00:17 | 27.52977 | -82.70943 | 1962 ft | 212 kts | 133° |
| 2026-05-05 00:17 | 27.51966 | -82.69766 | 1963 ft | 202 kts | 132° |
| 2026-05-05 00:17 | 27.51022 | -82.68673 | 1953 ft | 189 kts | 133° |
| 2026-05-05 00:17 | 27.50107 | -82.67619 | 1955 ft | 188 kts | 133° |
| 2026-05-05 00:18 | 27.49195 | -82.66572 | 1993 ft | 187 kts | 133° |
| 2026-05-05 00:18 | 27.48283 | -82.65523 | 1996 ft | 184 kts | 133° |
| 2026-05-05 00:18 | 27.47452 | -82.64574 | 1998 ft | 153 kts | 133° |
| 2026-05-05 00:18 | 27.46747 | -82.63765 | 1841 ft | 139 kts | 132° |
| 2026-05-05 00:19 | 27.46081 | -82.62999 | 1666 ft | 135 kts | 132° |
| 2026-05-05 00:19 | 27.45424 | -82.62242 | 1486 ft | 136 kts | 133° |
| 2026-05-05 00:19 | 27.44762 | -82.61482 | 1312 ft | 136 kts | 133° |
| 2026-05-05 00:19 | 27.44094 | -82.60721 | 1133 ft | 137 kts | 133° |
| 2026-05-05 00:20 | 27.43426 | -82.59956 | 949 ft | 137 kts | 133° |
| 2026-05-05 00:20 | 27.42757 | -82.59188 | 767 ft | 138 kts | 133° |
| 2026-05-05 00:20 | 27.42088 | -82.58428 | 588 ft | 130 kts | 133° |
| 2026-05-05 00:20 | 27.41532 | -82.57794 | 418 ft | 101 kts | 133° |
| 2026-05-05 00:21 | 27.41074 | -82.57257 | 281 ft | 91 kts | 132° |
| 2026-05-05 00:21 | 27.40632 | -82.56755 | 170 ft | 89 kts | 133° |
| 2026-05-05 00:21 | 27.40225 | -82.56285 | 48 ft | 79 kts | 133° |
| 2026-05-05 00:21 | 27.39877 | -82.55892 | 24 ft | 61 kts | 133° |
| 2026-05-05 00:22 | 27.39678 | -82.55664 | 28 ft | 34 kts | 135° |
| 2026-05-05 00:22 | 27.39525 | -82.55492 | 29 ft | 14 kts | 134° |
| 2026-05-05 00:22 | 27.39532 | -82.55416 | 27 ft | 10 kts | 39° |
| 2026-05-05 00:22 | 27.39573 | -82.55379 | 28 ft | 6 kts | 38° |
| 2026-05-05 00:23 | 27.39608 | -82.55348 | 29 ft | 9 kts | 39° |
| 2026-05-05 00:23 | 27.39685 | -82.55280 | 29 ft | 18 kts | 39° |
| 2026-05-05 00:23 | 27.39790 | -82.55187 | 31 ft | 19 kts | 34° |
| 2026-05-05 00:23 | 27.39897 | -82.55094 | 33 ft | 20 kts | 42° |
| 2026-05-05 00:24 | 27.40007 | -82.54994 | 32 ft | 13 kts | 39° |
| 2026-05-05 00:24 | 27.40082 | -82.54934 | 33 ft | 14 kts | 10° |
| 2026-05-05 00:24 | 27.40155 | -82.54964 | 32 ft | 10 kts | 261° |
| 2026-05-05 00:24 | 27.40182 | -82.54963 | 32 ft | 0 kts | 91° |